Barrie, Canada
Current Conditions -  °F | °C
As of 9:03 PM on Saturday 22 Nov 2014 (Local Time) from CYBN Reporting Station
Overcast Overcast  
Wind Chill: 34°   Ceiling: 1100
Heat Index: 39°   Visibility: 7mi
Dew Point: 37°   Wind: 8mph
Humidity: 93%   Direction: 220°SW
Pressure: 29.89"   Gusts: NA
Location:  44.39°N, 79.69°W
Report Text: CYBN 230203Z AUTO 22007KT 7SM OVC011 OVC025 OVC036 OVC048 04/03 A2989
Loading
Personal Weather Stations






























Interactive Weather Map New forecast layout! Learn more

10-Day Weather Forecast

Advertisements
Track Severe Weather on mobile